createdAt,value
2022-08-29T00:00:18.575Z,11.53
2022-08-29T00:02:49.349Z,11.40
2022-08-29T00:05:18.655Z,10.60
2022-08-29T00:07:47.507Z,10.90
2022-08-29T00:10:17.069Z,11.30
2022-08-29T00:12:47.025Z,12.50
2022-08-29T00:15:16.615Z,11.67
2022-08-29T00:17:45.395Z,11.30
2022-08-29T00:20:18.608Z,11.30
2022-08-29T00:22:47.420Z,10.93
2022-08-29T00:25:17.061Z,9.83
2022-08-29T00:27:49.862Z,10.43
2022-08-29T00:30:20.555Z,11.40
2022-08-29T00:32:48.973Z,10.17
2022-08-29T00:35:22.042Z,11.07
2022-08-29T00:37:51.586Z,11.10
2022-08-29T00:40:24.766Z,10.07
2022-08-29T00:42:54.817Z,10.17
2022-08-29T00:45:24.488Z,10.80
2022-08-29T00:47:57.015Z,10.23
2022-08-29T00:50:37.011Z,11.27
2022-08-29T00:53:08.004Z,10.77
2022-08-29T00:55:38.763Z,11.13
2022-08-29T00:58:18.255Z,11.03
2022-08-29T01:00:47.586Z,11.37
2022-08-29T01:03:15.897Z,10.73
2022-08-29T01:05:44.226Z,10.83
2022-08-29T01:08:12.894Z,10.87
2022-08-29T01:10:59.046Z,11.23
2022-08-29T01:13:36.074Z,11.03
2022-08-29T01:16:06.767Z,10.70
2022-08-29T01:18:38.053Z,11.70
2022-08-29T01:21:17.344Z,10.50
2022-08-29T01:23:53.368Z,11.07
2022-08-29T01:26:24.149Z,10.90
2022-08-29T01:28:53.804Z,11.13
2022-08-29T01:31:37.723Z,10.87
2022-08-29T01:34:14.534Z,11.80
2022-08-29T01:36:50.347Z,10.87
2022-08-29T01:39:19.443Z,11.80
2022-08-29T01:41:50.136Z,11.33
2022-08-29T01:44:21.801Z,12.57
2022-08-29T01:46:56.810Z,11.17
2022-08-29T01:49:28.119Z,11.10
2022-08-29T01:51:56.477Z,12.13
2022-08-29T01:54:24.731Z,11.23
2022-08-29T01:56:55.650Z,12.13
2022-08-29T01:59:28.355Z,11.60
2022-08-29T02:02:02.664Z,11.10
2022-08-29T02:04:31.531Z,12.30
2022-08-29T02:07:00.343Z,12.30
2022-08-29T02:09:29.671Z,14.13
2022-08-29T02:12:01.723Z,14.00
2022-08-29T02:14:31.463Z,14.83
2022-08-29T02:16:59.791Z,15.23
2022-08-29T02:19:28.447Z,15.57
2022-08-29T02:21:57.204Z,14.50
2022-08-29T02:24:26.452Z,15.30
2022-08-29T02:26:56.395Z,13.93
2022-08-29T02:29:30.821Z,16.17
2022-08-29T02:32:07.116Z,14.40
2022-08-29T02:34:37.044Z,15.47
2022-08-29T02:37:06.008Z,15.77
2022-08-29T02:39:35.165Z,16.73
2022-08-29T02:42:03.826Z,17.80
2022-08-29T02:44:33.874Z,15.47
2022-08-29T02:47:02.349Z,15.03
2022-08-29T02:49:30.700Z,15.37
2022-08-29T02:51:59.525Z,16.57
2022-08-29T02:54:27.911Z,14.63
2022-08-29T02:56:56.204Z,14.47
2022-08-29T02:59:24.529Z,14.93
2022-08-29T03:01:54.647Z,16.67
2022-08-29T03:04:23.066Z,15.30
2022-08-29T03:06:51.353Z,15.60
2022-08-29T03:09:19.679Z,17.43
2022-08-29T03:11:47.997Z,16.60
2022-08-29T03:14:16.276Z,17.77
2022-08-29T03:16:44.685Z,18.40
2022-08-29T03:19:14.522Z,17.87
2022-08-29T03:21:44.991Z,17.87
2022-08-29T03:24:13.377Z,17.57
2022-08-29T03:26:41.684Z,18.47
2022-08-29T03:29:09.990Z,18.97
2022-08-29T03:31:38.469Z,18.50
2022-08-29T03:34:06.974Z,18.50
2022-08-29T03:36:36.699Z,19.53
2022-08-29T03:39:05.283Z,19.80
2022-08-29T03:41:34.716Z,20.60
2022-08-29T03:44:03.289Z,20.50
2022-08-29T03:46:31.661Z,19.30
2022-08-29T03:49:00.081Z,20.90
2022-08-29T03:51:29.295Z,19.47
2022-08-29T03:53:59.761Z,20.80
2022-08-29T03:56:28.893Z,20.10
2022-08-29T03:58:58.458Z,20.50
2022-08-29T04:01:29.682Z,20.43
2022-08-29T04:03:59.213Z,20.47
2022-08-29T04:06:29.350Z,20.63
2022-08-29T04:08:59.136Z,18.67
2022-08-29T04:11:29.855Z,18.40
2022-08-29T04:13:58.194Z,20.27
2022-08-29T04:16:31.024Z,20.50
2022-08-29T04:19:00.109Z,17.93
2022-08-29T04:21:29.127Z,19.93
2022-08-29T04:23:58.864Z,20.60
2022-08-29T04:26:36.459Z,19.90
2022-08-29T04:29:06.980Z,19.60
2022-08-29T04:31:36.579Z,18.53
2022-08-29T04:34:06.639Z,17.07
2022-08-29T04:36:35.630Z,17.87
2022-08-29T04:39:06.816Z,17.27
2022-08-29T04:41:36.784Z,16.37
2022-08-29T04:44:06.435Z,15.90
2022-08-29T04:46:35.322Z,15.47
2022-08-29T04:49:04.650Z,16.30
2022-08-29T04:51:34.385Z,15.60
2022-08-29T04:54:05.110Z,15.47
2022-08-29T04:56:34.594Z,14.83
2022-08-29T04:59:03.519Z,15.30
2022-08-29T05:01:32.022Z,14.53
2022-08-29T05:04:00.791Z,14.93
2022-08-29T05:06:29.320Z,14.83
2022-08-29T05:08:59.313Z,14.97
2022-08-29T05:11:32.441Z,14.10
2022-08-29T05:14:02.526Z,13.87
2022-08-29T05:16:31.859Z,13.10
2022-08-29T05:19:00.770Z,13.13
2022-08-29T05:21:34.940Z,13.60
2022-08-29T05:24:05.729Z,14.10
2022-08-29T05:26:38.934Z,14.53
2022-08-29T05:29:10.825Z,13.47
2022-08-29T05:31:41.114Z,13.23
2022-08-29T05:34:14.054Z,13.20
2022-08-29T05:36:59.005Z,13.53
2022-08-29T05:39:27.508Z,12.60
2022-08-29T05:41:58.444Z,12.93
2022-08-29T05:44:34.233Z,12.67
2022-08-29T05:47:04.442Z,12.20
2022-08-29T05:49:32.908Z,12.37
2022-08-29T05:52:01.495Z,12.97
2022-08-29T05:54:30.331Z,12.97
2022-08-29T05:57:00.115Z,12.00
2022-08-29T05:59:28.532Z,12.20
2022-08-29T06:01:57.053Z,12.23
2022-08-29T06:04:25.464Z,12.37
2022-08-29T06:06:53.787Z,12.50
2022-08-29T06:09:22.132Z,12.90
2022-08-29T06:11:53.216Z,12.23
2022-08-29T06:14:22.965Z,12.77
2022-08-29T06:16:51.359Z,13.33
2022-08-29T06:19:19.742Z,13.77
2022-08-29T06:21:48.520Z,12.27
2022-08-29T06:24:17.407Z,12.53
2022-08-29T06:26:46.180Z,13.77
2022-08-29T06:29:16.071Z,15.07
2022-08-29T06:31:45.804Z,13.93
2022-08-29T06:34:14.318Z,13.50
2022-08-29T06:36:42.917Z,13.63
2022-08-29T06:39:12.712Z,15.30
2022-08-29T06:41:42.654Z,14.80
2022-08-29T06:44:11.617Z,13.97
2022-08-29T06:46:43.102Z,12.60
2022-08-29T06:49:15.870Z,13.17
2022-08-29T06:51:49.125Z,13.17
2022-08-29T06:54:19.364Z,14.00
2022-08-29T06:56:47.998Z,12.77
2022-08-29T06:59:16.601Z,12.97
2022-08-29T07:01:45.611Z,12.87
2022-08-29T07:04:16.053Z,13.50
2022-08-29T07:06:49.817Z,13.20
2022-08-29T07:09:18.705Z,11.93
2022-08-29T07:11:47.027Z,11.77
2022-08-29T07:14:15.544Z,12.03
2022-08-29T07:16:44.102Z,12.33
2022-08-29T07:19:13.901Z,12.90
2022-08-29T07:21:42.230Z,13.33
2022-08-29T07:24:10.861Z,12.83
2022-08-29T07:26:43.739Z,13.33
2022-08-29T07:29:15.261Z,13.43
2022-08-29T07:31:44.118Z,12.50
2022-08-29T07:34:14.686Z,12.77
2022-08-29T07:36:43.168Z,13.33
2022-08-29T07:39:15.398Z,13.07
2022-08-29T07:41:45.411Z,13.73
2022-08-29T07:44:15.034Z,13.57
2022-08-29T07:46:44.216Z,12.30
2022-08-29T07:49:14.319Z,13.77
2022-08-29T07:51:44.416Z,13.77
2022-08-29T07:54:16.548Z,14.17
2022-08-29T07:56:44.882Z,12.47
2022-08-29T07:59:13.815Z,13.90
2022-08-29T08:01:42.280Z,12.80
2022-08-29T08:04:12.222Z,15.00
2022-08-29T08:06:44.954Z,13.77
2022-08-29T08:09:15.285Z,14.33
2022-08-29T08:11:44.019Z,12.70
2022-08-29T08:14:13.051Z,13.73
2022-08-29T08:16:44.328Z,14.17
2022-08-29T08:19:13.721Z,14.67
2022-08-29T08:21:49.620Z,13.50
2022-08-29T08:24:19.905Z,11.27
2022-08-29T08:26:48.865Z,12.67
2022-08-29T08:29:17.844Z,14.07
2022-08-29T08:31:46.907Z,14.87
2022-08-29T08:34:15.757Z,13.53
2022-08-29T08:36:46.481Z,13.73
2022-08-29T08:39:15.569Z,13.60
2022-08-29T08:41:54.703Z,13.70
2022-08-29T08:45:00.599Z,14.00
2022-08-29T08:47:34.017Z,12.67
2022-08-29T08:50:07.847Z,13.43
2022-08-29T08:52:45.399Z,12.90
2022-08-29T08:55:28.277Z,14.00
2022-08-29T08:58:06.094Z,14.20
2022-08-29T09:00:45.412Z,13.60
2022-08-29T09:03:46.676Z,13.93
2022-08-29T09:06:26.794Z,14.20
2022-08-29T09:09:10.326Z,13.17
2022-08-29T09:11:55.352Z,13.77
2022-08-29T09:14:39.596Z,16.57
2022-08-29T09:17:15.252Z,14.60
2022-08-29T09:19:44.075Z,16.07
2022-08-29T09:22:19.031Z,15.07
2022-08-29T09:24:54.908Z,16.57
2022-08-29T09:27:26.001Z,15.77
2022-08-29T09:30:00.770Z,13.87
2022-08-29T09:32:29.308Z,13.73
2022-08-29T09:35:08.617Z,13.83
2022-08-29T09:37:38.709Z,14.10
2022-08-29T09:40:16.695Z,15.33
2022-08-29T09:43:01.413Z,13.97
2022-08-29T09:45:29.940Z,14.73
2022-08-29T09:48:14.380Z,14.47
2022-08-29T09:50:43.411Z,14.30
2022-08-29T09:53:23.819Z,13.77
2022-08-29T09:55:55.234Z,14.53
2022-08-29T09:58:37.569Z,14.37
2022-08-29T10:01:11.795Z,14.90
2022-08-29T10:03:44.561Z,14.77
2022-08-29T10:06:17.854Z,14.87
2022-08-29T10:09:00.981Z,14.10
2022-08-29T10:11:38.468Z,14.73
2022-08-29T10:14:12.775Z,14.70
2022-08-29T10:17:20.485Z,15.40
2022-08-29T10:19:49.793Z,15.17
2022-08-29T10:22:37.353Z,15.47
2022-08-29T10:25:11.924Z,14.80
2022-08-29T10:27:46.871Z,15.07
2022-08-29T10:30:19.650Z,15.80
2022-08-29T10:33:09.609Z,14.43
2022-08-29T10:35:47.676Z,15.27
2022-08-29T10:38:30.975Z,16.83
2022-08-29T10:41:08.523Z,15.80
2022-08-29T10:43:43.141Z,15.57
2022-08-29T10:46:37.070Z,15.13
2022-08-29T10:49:18.220Z,15.10
2022-08-29T10:51:57.467Z,16.57
2022-08-29T10:54:37.508Z,14.33
2022-08-29T10:57:08.716Z,13.90
2022-08-29T10:59:57.089Z,13.37
2022-08-29T11:02:35.213Z,13.50
2022-08-29T11:05:11.021Z,14.40
2022-08-29T11:07:45.295Z,12.80
2022-08-29T11:10:20.404Z,13.37
2022-08-29T11:12:55.449Z,12.10
2022-08-29T11:15:29.259Z,13.17
2022-08-29T11:18:10.165Z,12.13
2022-08-29T11:20:45.320Z,11.83
2022-08-29T11:23:27.789Z,11.70
2022-08-29T11:25:58.005Z,11.47
2022-08-29T11:28:36.206Z,11.60
2022-08-29T11:31:13.937Z,10.98
2022-08-29T11:33:53.119Z,10.00
2022-08-29T11:36:44.130Z,10.07
2022-08-29T11:39:44.022Z,10.53
2022-08-29T11:42:49.736Z,9.97
2022-08-29T11:45:09.154Z,9.23
2022-08-29T11:47:58.968Z,8.35
2022-08-29T11:50:34.038Z,9.27
2022-08-29T11:53:16.586Z,8.82
2022-08-29T11:56:23.527Z,9.73
2022-08-29T11:58:59.642Z,9.98
2022-08-29T12:02:00.771Z,9.30
2022-08-29T12:04:54.812Z,8.65
2022-08-29T12:07:36.104Z,8.77
2022-08-29T12:10:09.476Z,8.88
2022-08-29T12:12:45.288Z,8.77
2022-08-29T12:15:55.763Z,9.25
2022-08-29T12:18:45.195Z,8.13
2022-08-29T12:21:48.717Z,7.32
2022-08-29T12:24:41.801Z,7.70
2022-08-29T12:27:41.850Z,6.93
2022-08-29T12:30:11.274Z,6.45
2022-08-29T12:32:57.149Z,6.80
2022-08-29T12:36:03.113Z,6.85
2022-08-29T12:38:50.197Z,6.97
2022-08-29T12:41:42.639Z,6.50
2022-08-29T12:44:16.632Z,7.05
2022-08-29T12:46:49.627Z,6.53
2022-08-29T12:49:25.385Z,6.68
2022-08-29T12:51:58.494Z,6.30
2022-08-29T12:54:34.809Z,6.00
2022-08-29T12:57:05.179Z,6.28
2022-08-29T12:59:35.189Z,5.47
2022-08-29T13:02:03.882Z,6.10
2022-08-29T13:04:35.205Z,6.38
2022-08-29T13:07:07.155Z,6.93
2022-08-29T13:09:42.205Z,6.07
2022-08-29T13:12:16.623Z,5.63
2022-08-29T13:15:01.194Z,5.40
2022-08-29T13:17:34.734Z,6.68
2022-08-29T13:20:46.262Z,6.13
2022-08-29T13:23:29.637Z,6.10
2022-08-29T13:26:05.653Z,5.18
2022-08-29T13:28:44.060Z,5.78
2022-08-29T13:31:33.136Z,5.80
2022-08-29T13:34:21.958Z,5.35
2022-08-29T13:37:00.084Z,5.47
2022-08-29T13:39:41.634Z,5.53
2022-08-29T13:42:35.340Z,5.78
2022-08-29T13:45:15.526Z,5.15
2022-08-29T13:48:14.550Z,5.68
2022-08-29T13:50:42.915Z,5.00
2022-08-29T13:53:11.408Z,5.20
2022-08-29T13:55:43.338Z,4.65
2022-08-29T13:58:15.043Z,5.13
2022-08-29T14:00:44.093Z,5.20
2022-08-29T14:03:14.791Z,5.05
2022-08-29T14:05:43.618Z,3.97
2022-08-29T14:08:13.434Z,3.70
2022-08-29T14:10:42.533Z,4.40
2022-08-29T14:13:12.383Z,5.05
2022-08-29T14:15:40.837Z,5.05
2022-08-29T14:18:09.391Z,4.38
2022-08-29T14:20:39.029Z,4.00
2022-08-29T14:23:07.416Z,3.13
2022-08-29T14:25:35.781Z,2.80
2022-08-29T14:28:04.781Z,3.95
2022-08-29T14:30:34.496Z,3.70
2022-08-29T14:33:02.841Z,3.90
2022-08-29T14:35:32.135Z,3.78
2022-08-29T14:38:02.360Z,4.25
2022-08-29T14:40:32.256Z,3.92
2022-08-29T14:43:02.401Z,4.22
2022-08-29T14:45:33.995Z,3.83
2022-08-29T14:48:02.392Z,4.00
2022-08-29T14:50:31.092Z,4.00
2022-08-29T14:52:59.418Z,3.35
2022-08-29T14:55:28.035Z,3.70
2022-08-29T14:57:56.457Z,3.90
2022-08-29T15:00:29.569Z,4.05
2022-08-29T15:03:00.005Z,3.35
2022-08-29T15:05:28.718Z,3.50
2022-08-29T15:07:57.385Z,3.50
2022-08-29T15:10:27.062Z,4.28
2022-08-29T15:12:55.531Z,4.15
2022-08-29T15:15:29.154Z,4.03
2022-08-29T15:18:01.292Z,4.63
2022-08-29T15:20:36.135Z,4.40
2022-08-29T15:23:05.964Z,4.35
2022-08-29T15:25:34.474Z,4.50
2022-08-29T15:28:03.110Z,4.57
2022-08-29T15:30:31.377Z,4.10
2022-08-29T15:33:01.051Z,3.83
2022-08-29T15:35:29.535Z,3.67
2022-08-29T15:37:58.147Z,4.30
2022-08-29T15:40:27.069Z,3.75
2022-08-29T15:42:55.465Z,4.38
2022-08-29T15:45:23.902Z,3.78
2022-08-29T15:47:53.927Z,4.05
2022-08-29T15:50:24.456Z,4.32
2022-08-29T15:52:53.302Z,4.30
2022-08-29T15:55:21.895Z,3.65
2022-08-29T15:57:52.672Z,3.60
2022-08-29T16:00:30.054Z,4.57
2022-08-29T16:03:02.610Z,3.78
2022-08-29T16:05:33.822Z,4.00
2022-08-29T16:08:02.861Z,3.90
2022-08-29T16:10:31.692Z,4.10
2022-08-29T16:13:00.463Z,4.20
2022-08-29T16:15:31.151Z,5.18
2022-08-29T16:18:00.518Z,4.50
2022-08-29T16:20:31.332Z,4.78
2022-08-29T16:23:00.475Z,4.50
2022-08-29T16:25:29.656Z,4.35
2022-08-29T16:27:58.526Z,4.50
2022-08-29T16:30:30.198Z,4.35
2022-08-29T16:32:58.974Z,4.57
2022-08-29T16:35:27.775Z,4.43
2022-08-29T16:38:02.802Z,5.05
2022-08-29T16:40:32.610Z,5.03
2022-08-29T16:43:02.008Z,4.55
2022-08-29T16:45:32.313Z,3.97
2022-08-29T16:48:00.964Z,4.30
2022-08-29T16:50:30.949Z,4.10
2022-08-29T16:53:01.808Z,4.57
2022-08-29T16:55:31.075Z,4.83
2022-08-29T16:58:22.316Z,4.83
2022-08-29T17:00:52.071Z,4.10
2022-08-29T17:03:20.524Z,4.80
2022-08-29T17:05:49.903Z,4.50
2022-08-29T17:08:18.674Z,4.93
2022-08-29T17:10:46.396Z,5.10
2022-08-29T17:13:13.630Z,4.57
2022-08-29T17:15:41.236Z,5.53
2022-08-29T17:18:10.027Z,4.37
2022-08-29T17:20:38.481Z,4.27
2022-08-29T17:23:10.489Z,4.60
2022-08-29T17:25:40.584Z,4.33
2022-08-29T17:28:18.570Z,4.63
2022-08-29T17:30:48.966Z,4.67
2022-08-29T17:33:17.785Z,4.40
2022-08-29T17:35:46.433Z,4.60
2022-08-29T17:38:15.629Z,5.10
2022-08-29T17:40:46.238Z,4.40
2022-08-29T17:43:18.340Z,4.60
2022-08-29T17:45:47.172Z,4.20
2022-08-29T17:48:15.753Z,4.60
2022-08-29T17:50:44.517Z,4.60
2022-08-29T17:53:12.988Z,4.97
2022-08-29T17:55:41.655Z,5.03
2022-08-29T17:58:11.536Z,5.00
2022-08-29T18:00:40.341Z,6.03
2022-08-29T18:03:08.828Z,5.47
2022-08-29T18:05:37.937Z,5.40
2022-08-29T18:08:07.436Z,5.87
2022-08-29T18:10:37.231Z,5.13
2022-08-29T18:13:06.013Z,5.40
2022-08-29T18:15:35.795Z,4.80
2022-08-29T18:18:06.196Z,5.10
2022-08-29T18:20:34.761Z,4.63
2022-08-29T18:23:03.215Z,5.30
2022-08-29T18:25:31.918Z,5.07
2022-08-29T18:28:00.453Z,5.10
2022-08-29T18:30:28.913Z,5.23
2022-08-29T18:32:58.635Z,5.20
2022-08-29T18:35:26.963Z,4.80
2022-08-29T18:37:55.301Z,5.10
2022-08-29T18:40:24.553Z,5.00
2022-08-29T18:42:53.296Z,4.83
2022-08-29T18:45:21.707Z,5.20
2022-08-29T18:47:50.256Z,5.23
2022-08-29T18:50:35.288Z,5.10
2022-08-29T18:53:07.917Z,5.10
2022-08-29T18:55:36.532Z,5.53
2022-08-29T18:58:05.465Z,5.20
2022-08-29T19:00:34.226Z,5.40
2022-08-29T19:03:04.560Z,4.90
2022-08-29T19:05:36.670Z,5.07
2022-08-29T19:08:05.934Z,5.17
2022-08-29T19:10:35.300Z,5.10
2022-08-29T19:13:07.640Z,5.80
2022-08-29T19:15:41.350Z,5.13
2022-08-29T19:18:11.657Z,5.37
2022-08-29T19:20:59.945Z,4.70
2022-08-29T19:23:28.342Z,5.60
2022-08-29T19:25:56.811Z,5.27
2022-08-29T19:28:25.646Z,5.40
2022-08-29T19:30:54.616Z,5.10
2022-08-29T19:33:23.038Z,5.17
2022-08-29T19:35:53.734Z,5.00
2022-08-29T19:38:23.895Z,5.60
2022-08-29T19:40:56.439Z,5.37
2022-08-29T19:43:27.427Z,5.53
2022-08-29T19:45:57.470Z,6.20
2022-08-29T19:48:28.015Z,5.80
2022-08-29T19:50:58.134Z,5.13
2022-08-29T19:53:27.171Z,5.50
2022-08-29T19:55:56.934Z,5.27
2022-08-29T19:58:31.589Z,5.60
2022-08-29T20:01:02.639Z,5.53
2022-08-29T20:03:32.566Z,5.20
2022-08-29T20:06:07.591Z,5.87
2022-08-29T20:08:36.944Z,5.27
2022-08-29T20:11:06.568Z,5.70
2022-08-29T20:13:36.317Z,5.03
2022-08-29T20:16:13.961Z,5.60
2022-08-29T20:18:47.127Z,6.03
2022-08-29T20:21:20.779Z,5.43
2022-08-29T20:23:57.103Z,5.53
2022-08-29T20:26:29.426Z,5.40
2022-08-29T20:28:58.377Z,5.60
2022-08-29T20:31:27.831Z,5.53
2022-08-29T20:33:56.356Z,6.27
2022-08-29T20:36:44.940Z,6.27
2022-08-29T20:39:16.934Z,6.10
2022-08-29T20:41:50.077Z,5.57
2022-08-29T20:44:20.410Z,5.30
2022-08-29T20:46:50.400Z,5.87
2022-08-29T20:49:22.863Z,6.17
2022-08-29T20:51:53.650Z,5.90
2022-08-29T20:54:24.556Z,6.17
2022-08-29T20:56:54.166Z,6.00
2022-08-29T20:59:26.548Z,5.90
2022-08-29T21:01:56.544Z,6.47
2022-08-29T21:04:42.468Z,6.67
2022-08-29T21:07:15.343Z,5.80
2022-08-29T21:09:45.969Z,5.67
2022-08-29T21:12:15.666Z,6.47
2022-08-29T21:14:44.596Z,6.40
2022-08-29T21:17:15.067Z,5.97
2022-08-29T21:19:44.054Z,6.07
2022-08-29T21:22:15.186Z,5.47
2022-08-29T21:24:44.020Z,5.87
2022-08-29T21:27:12.436Z,5.67
2022-08-29T21:29:42.475Z,5.50
2022-08-29T21:32:10.795Z,6.10
2022-08-29T21:34:39.089Z,5.73
2022-08-29T21:37:07.507Z,6.47
2022-08-29T21:39:37.216Z,6.57
2022-08-29T21:42:06.714Z,5.93
2022-08-29T21:44:35.619Z,6.90
2022-08-29T21:47:04.394Z,6.43
2022-08-29T21:49:32.956Z,5.83
2022-08-29T21:52:02.198Z,5.90
2022-08-29T21:54:30.628Z,5.73
2022-08-29T21:57:00.386Z,5.90
2022-08-29T21:59:28.911Z,6.10
2022-08-29T22:01:57.453Z,6.93
2022-08-29T22:04:28.625Z,7.20
2022-08-29T22:06:59.438Z,6.10
2022-08-29T22:09:28.927Z,6.30
2022-08-29T22:11:57.422Z,6.57
2022-08-29T22:14:42.154Z,6.33
2022-08-29T22:17:10.473Z,5.60
2022-08-29T22:19:39.501Z,6.37
2022-08-29T22:22:10.248Z,6.27
2022-08-29T22:24:38.693Z,6.43
2022-08-29T22:27:07.481Z,6.27
2022-08-29T22:29:37.509Z,6.43
2022-08-29T22:32:06.469Z,6.43
2022-08-29T22:34:34.893Z,6.60
2022-08-29T22:37:03.291Z,6.87
2022-08-29T22:39:31.732Z,7.10
2022-08-29T22:42:00.126Z,7.10
2022-08-29T22:47:20.232Z,6.03
2022-08-29T22:49:48.630Z,6.50
2022-08-29T22:52:16.987Z,6.20
2022-08-29T22:54:45.352Z,6.33
2022-08-29T22:57:18.136Z,7.00
2022-08-29T22:59:48.716Z,6.50
2022-08-29T23:02:20.575Z,6.57
2022-08-29T23:04:51.954Z,6.33
2022-08-29T23:07:21.137Z,6.63
2022-08-29T23:09:50.685Z,6.40
2022-08-29T23:12:19.613Z,6.73
2022-08-29T23:14:48.360Z,6.93
2022-08-29T23:17:19.964Z,6.63
2022-08-29T23:19:49.416Z,5.93
2022-08-29T23:22:18.328Z,6.07
2022-08-29T23:24:53.879Z,6.03
2022-08-29T23:27:27.901Z,5.93
2022-08-29T23:29:56.581Z,6.20
2022-08-29T23:32:26.809Z,6.73
2022-08-29T23:34:55.814Z,6.53
2022-08-29T23:37:24.379Z,6.03
2022-08-29T23:39:52.794Z,6.10
2022-08-29T23:42:21.180Z,6.97
2022-08-29T23:44:49.744Z,6.20
2022-08-29T23:47:18.795Z,6.40
2022-08-29T23:49:48.616Z,7.43
2022-08-29T23:52:16.997Z,7.37
2022-08-29T23:54:45.391Z,7.20
2022-08-29T23:57:13.762Z,7.07
2022-08-29T23:59:59.613Z,7.00
